createdAt,value
2023-05-23T00:02:51.177Z,3.05
2023-05-23T00:05:53.723Z,2.70
2023-05-23T00:08:57.396Z,2.60
2023-05-23T00:11:59.446Z,2.30
2023-05-23T00:15:01.434Z,2.13
2023-05-23T00:18:03.648Z,2.40
2023-05-23T00:21:05.570Z,1.80
2023-05-23T00:24:07.674Z,1.90
2023-05-23T00:27:09.599Z,1.75
2023-05-23T00:30:11.828Z,1.70
2023-05-23T00:33:14.631Z,1.52
2023-05-23T00:36:16.552Z,1.60
2023-05-23T00:39:21.712Z,1.87
2023-05-23T00:42:23.721Z,1.80
2023-05-23T00:45:25.618Z,1.60
2023-05-23T00:48:27.854Z,1.80
2023-05-23T00:51:29.760Z,2.13
2023-05-23T00:54:31.938Z,2.30
2023-05-23T00:57:34.909Z,2.28
2023-05-23T01:00:38.721Z,2.63
2023-05-23T01:03:40.832Z,2.42
2023-05-23T01:06:47.101Z,2.05
2023-05-23T01:09:50.287Z,2.20
2023-05-23T01:13:26.166Z,1.98
2023-05-23T01:16:31.105Z,1.70
2023-05-23T01:19:56.789Z,1.55
2023-05-23T01:23:01.173Z,1.70
2023-05-23T01:26:40.663Z,1.50
2023-05-23T01:29:47.101Z,1.50
2023-05-23T01:32:52.712Z,1.50
2023-05-23T01:35:58.401Z,1.60
2023-05-23T01:39:00.294Z,1.60
2023-05-23T01:42:03.687Z,1.50
2023-05-23T01:45:08.303Z,1.40
2023-05-23T01:48:12.723Z,1.20
2023-05-23T01:51:15.269Z,1.42
2023-05-23T01:54:19.953Z,1.40
2023-05-23T01:57:24.514Z,1.30
2023-05-23T02:00:26.809Z,1.40
2023-05-23T02:03:28.820Z,1.27
2023-05-23T02:06:31.931Z,1.38
2023-05-23T02:09:33.804Z,1.50
2023-05-23T02:12:36.088Z,1.73
2023-05-23T02:15:38.018Z,1.30
2023-05-23T02:18:39.950Z,1.80
2023-05-23T02:21:41.894Z,1.42
2023-05-23T02:24:43.852Z,1.90
2023-05-23T02:27:48.165Z,1.83
2023-05-23T02:30:50.026Z,2.30
2023-05-23T02:33:52.060Z,2.00
2023-05-23T02:36:54.563Z,1.50
2023-05-23T02:39:57.033Z,1.65
2023-05-23T02:42:59.021Z,1.50
2023-05-23T02:46:01.029Z,1.73
2023-05-23T02:49:02.941Z,1.42
2023-05-23T02:52:06.800Z,1.27
2023-05-23T02:58:16.430Z,1.30
2023-05-23T03:01:18.829Z,1.38
2023-05-23T03:04:21.519Z,1.30
2023-05-23T03:07:28.257Z,1.17
2023-05-23T03:10:31.099Z,1.30
2023-05-23T03:13:32.995Z,1.10
2023-05-23T03:16:35.269Z,1.20
2023-05-23T03:19:37.452Z,1.50
2023-05-23T03:22:39.512Z,1.70
2023-05-23T03:25:43.170Z,1.70
2023-05-23T03:28:45.148Z,1.60
2023-05-23T03:31:47.018Z,1.30
2023-05-23T03:34:49.491Z,1.35
2023-05-23T03:37:51.374Z,1.40
2023-05-23T03:40:54.094Z,1.30
2023-05-23T03:43:56.038Z,1.20
2023-05-23T03:46:57.931Z,1.10
2023-05-23T03:49:59.919Z,1.25
2023-05-23T03:53:02.919Z,1.05
2023-05-23T03:56:05.278Z,1.15
2023-05-23T03:59:07.697Z,1.70
2023-05-23T04:02:09.741Z,1.30
2023-05-23T04:08:15.908Z,1.33
2023-05-23T04:11:17.931Z,1.27
2023-05-23T04:14:22.580Z,1.30
2023-05-23T04:17:25.864Z,1.40
2023-05-23T04:20:28.314Z,1.42
2023-05-23T04:23:30.541Z,1.40
2023-05-23T04:29:36.133Z,1.50
2023-05-23T04:32:38.437Z,1.42
2023-05-23T04:35:40.948Z,1.90
2023-05-23T04:38:43.807Z,2.05
2023-05-23T04:41:45.725Z,1.87
2023-05-23T04:44:56.896Z,1.70
2023-05-23T04:48:17.089Z,1.55
2023-05-23T04:51:21.779Z,1.55
2023-05-23T04:54:29.362Z,1.20
2023-05-23T04:57:34.692Z,1.60
2023-05-23T05:00:37.471Z,1.55
2023-05-23T05:03:40.070Z,1.30
2023-05-23T05:06:42.065Z,1.42
2023-05-23T05:09:45.001Z,1.55
2023-05-23T05:12:49.666Z,1.80
2023-05-23T05:15:52.943Z,1.40
2023-05-23T05:18:55.203Z,1.50
2023-05-23T05:21:57.878Z,1.60
2023-05-23T05:28:08.517Z,1.40
2023-05-23T05:31:15.583Z,1.60
2023-05-23T05:34:18.524Z,1.55
2023-05-23T05:37:21.231Z,1.75
2023-05-23T05:40:23.405Z,1.52
2023-05-23T05:43:26.752Z,1.50
2023-05-23T05:46:29.062Z,1.50
2023-05-23T05:49:31.510Z,1.60
2023-05-23T05:52:34.770Z,1.60
2023-05-23T05:55:38.188Z,1.42
2023-05-23T05:58:40.213Z,1.48
2023-05-23T06:01:45.047Z,2.30
2023-05-23T06:04:47.493Z,3.05
2023-05-23T06:07:50.255Z,3.05
2023-05-23T06:10:52.305Z,2.92
2023-05-23T06:13:54.473Z,2.95
2023-05-23T06:16:56.415Z,2.80
2023-05-23T06:19:58.449Z,2.30
2023-05-23T06:23:01.825Z,2.22
2023-05-23T06:29:05.756Z,2.28
2023-05-23T06:32:10.075Z,2.83
2023-05-23T06:35:12.116Z,2.17
2023-05-23T06:38:15.268Z,2.33
2023-05-23T06:41:18.887Z,2.65
2023-05-23T06:44:20.826Z,3.10
2023-05-23T06:47:27.905Z,3.47
2023-05-23T06:50:29.855Z,3.40
2023-05-23T06:53:32.079Z,2.90
2023-05-23T06:56:35.094Z,2.35
2023-05-23T06:59:37.185Z,1.80
2023-05-23T07:02:40.011Z,1.95
2023-05-23T07:05:42.462Z,2.00
2023-05-23T07:08:46.865Z,2.13
2023-05-23T07:11:50.320Z,2.17
2023-05-23T07:14:52.469Z,2.10
2023-05-23T07:17:56.089Z,1.73
2023-05-23T07:20:58.212Z,1.80
2023-05-23T07:24:00.650Z,2.05
2023-05-23T07:27:03.941Z,1.83
2023-05-23T07:30:09.822Z,2.05
2023-05-23T07:33:13.120Z,2.00
2023-05-23T07:36:15.325Z,1.80
2023-05-23T07:39:22.134Z,1.83
2023-05-23T07:42:25.453Z,1.92
2023-05-23T07:45:27.329Z,1.95
2023-05-23T07:48:29.257Z,1.60
2023-05-23T07:51:31.727Z,1.90
2023-05-23T07:54:35.207Z,2.00
2023-05-23T07:57:38.476Z,1.75
2023-05-23T08:00:41.943Z,1.83
2023-05-23T08:03:54.295Z,1.85
2023-05-23T08:07:06.057Z,1.50
2023-05-23T08:10:18.132Z,1.60
2023-05-23T08:13:20.690Z,1.65
2023-05-23T08:16:42.752Z,1.52
2023-05-23T08:19:52.624Z,1.88
2023-05-23T08:22:58.265Z,1.65
2023-05-23T08:26:00.451Z,1.75
2023-05-23T08:29:02.715Z,2.03
2023-05-23T08:32:06.402Z,1.92
2023-05-23T08:35:09.678Z,2.00
2023-05-23T08:38:13.276Z,1.70
2023-05-23T08:44:36.086Z,1.85
2023-05-23T08:47:41.150Z,1.92
2023-05-23T08:50:47.672Z,1.95
2023-05-23T08:53:53.720Z,1.70
2023-05-23T08:56:57.782Z,2.03
2023-05-23T09:00:01.146Z,2.08
2023-05-23T09:03:04.830Z,2.25
2023-05-23T09:06:29.257Z,1.85
2023-05-23T09:09:34.053Z,2.00
2023-05-23T09:12:38.140Z,1.90
2023-05-23T09:18:59.611Z,2.08
2023-05-23T09:22:04.310Z,1.80
2023-05-23T09:25:11.771Z,2.00
2023-05-23T09:28:16.037Z,1.50
2023-05-23T09:31:18.680Z,1.90
2023-05-23T09:34:20.617Z,1.92
2023-05-23T09:37:24.605Z,2.38
2023-05-23T09:40:33.278Z,2.10
2023-05-23T09:43:39.029Z,2.20
2023-05-23T09:46:41.489Z,1.90
2023-05-23T09:49:46.570Z,2.20
2023-05-23T09:52:48.605Z,2.45
2023-05-23T09:55:56.145Z,2.00
2023-05-23T09:58:59.396Z,1.80
2023-05-23T10:02:04.698Z,2.45
2023-05-23T10:05:09.278Z,2.45
2023-05-23T10:08:16.332Z,3.08
2023-05-23T10:11:38.252Z,2.47
2023-05-23T10:14:45.564Z,1.80
2023-05-23T10:18:05.314Z,1.63
2023-05-23T10:21:12.513Z,1.95
2023-05-23T10:24:14.739Z,1.67
2023-05-23T10:27:16.578Z,1.65
2023-05-23T10:30:18.862Z,1.80
2023-05-23T10:33:22.681Z,1.77
2023-05-23T10:36:40.957Z,2.10
2023-05-23T10:39:44.445Z,1.88
2023-05-23T10:43:03.121Z,1.95
2023-05-23T10:46:05.167Z,2.05
2023-05-23T10:49:08.793Z,2.00
2023-05-23T10:52:13.457Z,2.30
2023-05-23T10:55:17.819Z,2.00
2023-05-23T10:58:23.093Z,1.90
2023-05-23T11:01:27.167Z,1.90
2023-05-23T11:04:29.730Z,1.80
2023-05-23T11:07:32.829Z,2.40
2023-05-23T11:11:01.868Z,2.10
2023-05-23T11:14:03.843Z,2.05
2023-05-23T11:17:30.011Z,2.03
2023-05-23T11:20:32.499Z,1.90
2023-05-23T11:23:42.041Z,1.80
2023-05-23T11:27:04.135Z,1.67
2023-05-23T11:30:09.734Z,1.70
2023-05-23T11:33:14.075Z,1.77
2023-05-23T11:36:16.077Z,1.90
2023-05-23T11:39:19.501Z,1.67
2023-05-23T11:42:22.675Z,1.98
2023-05-23T11:45:25.332Z,1.38
2023-05-23T11:48:27.244Z,1.52
2023-05-23T11:51:29.221Z,1.50
2023-05-23T11:54:31.252Z,1.60
2023-05-23T11:57:33.116Z,1.50
2023-05-23T12:00:34.988Z,1.50
2023-05-23T12:03:50.510Z,1.65
2023-05-23T12:06:52.501Z,1.50
2023-05-23T12:09:57.460Z,1.60
2023-05-23T12:12:59.488Z,1.63
2023-05-23T12:16:02.700Z,1.80
2023-05-23T12:19:06.655Z,1.77
2023-05-23T12:22:08.843Z,2.03
2023-05-23T12:25:11.291Z,2.08
2023-05-23T12:31:21.409Z,1.88
2023-05-23T12:34:23.540Z,1.70
2023-05-23T12:37:25.877Z,1.95
2023-05-23T12:43:30.468Z,1.77
2023-05-23T12:46:32.452Z,1.75
2023-05-23T12:49:34.296Z,1.77
2023-05-23T12:52:37.317Z,1.90
2023-05-23T12:55:39.484Z,1.85
2023-05-23T13:01:43.426Z,1.60
2023-05-23T13:04:45.377Z,1.90
2023-05-23T13:07:47.210Z,1.88
2023-05-23T13:10:49.567Z,1.92
2023-05-23T13:13:51.717Z,1.52
2023-05-23T13:16:53.632Z,1.80
2023-05-23T13:19:55.607Z,1.63
2023-05-23T13:22:58.115Z,1.60
2023-05-23T13:26:00.035Z,1.63
2023-05-23T13:29:01.965Z,1.30
2023-05-23T13:32:03.871Z,1.40
2023-05-23T13:35:06.408Z,1.50
2023-05-23T13:38:08.400Z,1.50
2023-05-23T13:41:10.449Z,1.52
2023-05-23T13:44:12.330Z,1.52
2023-05-23T13:47:15.732Z,1.48
2023-05-23T13:50:17.991Z,1.70
2023-05-23T13:53:21.532Z,1.60
2023-05-23T13:56:24.520Z,1.33
2023-05-23T13:59:27.043Z,1.20
2023-05-23T14:02:30.394Z,1.50
2023-05-23T14:05:32.387Z,1.40
2023-05-23T14:08:34.783Z,1.65
2023-05-23T14:14:38.430Z,1.20
2023-05-23T14:17:40.451Z,1.25
2023-05-23T14:20:42.551Z,1.50
2023-05-23T14:23:44.535Z,1.63
2023-05-23T14:26:47.048Z,1.67
2023-05-23T14:29:49.878Z,1.48
2023-05-23T14:32:51.912Z,1.60
2023-05-23T14:35:53.902Z,1.30
2023-05-23T14:38:56.011Z,1.85
2023-05-23T14:41:57.845Z,1.60
2023-05-23T14:44:59.794Z,1.50
2023-05-23T14:48:02.431Z,2.00
2023-05-23T14:51:04.654Z,1.60
2023-05-23T14:54:06.742Z,1.58
2023-05-23T14:57:09.418Z,1.48
2023-05-23T15:00:11.801Z,1.70
2023-05-23T15:03:14.747Z,1.63
2023-05-23T15:06:16.671Z,2.15
2023-05-23T15:09:19.175Z,1.60
2023-05-23T15:12:21.072Z,1.73
2023-05-23T15:15:23.746Z,1.40
2023-05-23T15:18:38.883Z,1.90
2023-05-23T15:21:50.522Z,2.00
2023-05-23T15:24:53.428Z,1.83
2023-05-23T15:27:56.367Z,1.45
2023-05-23T15:30:59.134Z,1.90
2023-05-23T15:34:01.062Z,1.80
2023-05-23T15:37:02.871Z,1.90
2023-05-23T15:40:05.197Z,1.77
2023-05-23T15:46:08.856Z,1.55
2023-05-23T15:49:21.592Z,1.50
2023-05-23T15:52:28.243Z,1.40
2023-05-23T15:55:31.068Z,1.40
2023-05-23T15:58:32.992Z,1.40
2023-05-23T16:01:35.216Z,1.40
2023-05-23T16:07:38.972Z,1.30
2023-05-23T16:10:40.878Z,1.40
2023-05-23T16:13:42.694Z,1.30
2023-05-23T16:16:44.530Z,1.45
2023-05-23T16:19:46.454Z,1.48
2023-05-23T16:22:48.297Z,1.30
2023-05-23T16:25:50.151Z,1.48
2023-05-23T16:28:52.167Z,1.23
2023-05-23T16:31:54.034Z,1.40
2023-05-23T16:34:55.905Z,1.33
2023-05-23T16:37:57.686Z,1.48
2023-05-23T16:40:59.529Z,1.42
2023-05-23T16:44:01.362Z,1.30
2023-05-23T16:47:03.141Z,1.20
2023-05-23T16:50:05.532Z,1.30
2023-05-23T16:56:09.200Z,1.60
2023-05-23T16:59:11.080Z,1.40
2023-05-23T17:02:14.703Z,1.15
2023-05-23T17:05:16.541Z,1.40
2023-05-23T17:08:18.386Z,1.40
2023-05-23T17:11:20.321Z,1.23
2023-05-23T17:14:22.143Z,1.50
2023-05-23T17:17:24.030Z,1.90
2023-05-23T17:20:27.110Z,1.73
2023-05-23T17:23:29.148Z,1.95
2023-05-23T17:26:31.064Z,1.63
2023-05-23T17:29:32.904Z,1.73
2023-05-23T17:32:35.475Z,2.10
2023-05-23T17:35:37.474Z,1.70
2023-05-23T17:38:39.362Z,1.42
2023-05-23T17:41:41.665Z,2.50
2023-05-23T17:44:44.575Z,2.70
2023-05-23T17:47:47.212Z,2.30
2023-05-23T17:50:49.233Z,2.00
2023-05-23T17:53:53.709Z,1.65
2023-05-23T17:56:55.752Z,1.70
2023-05-23T17:59:58.180Z,1.50
2023-05-23T18:06:02.841Z,1.50
2023-05-23T18:09:05.207Z,1.45
2023-05-23T18:12:07.118Z,1.60
2023-05-23T18:15:09.818Z,1.35
2023-05-23T18:18:12.180Z,1.45
2023-05-23T18:24:16.570Z,1.25
2023-05-23T18:27:18.346Z,1.13
2023-05-23T18:30:20.195Z,1.60
2023-05-23T18:33:22.263Z,1.50
2023-05-23T18:36:24.172Z,1.42
2023-05-23T18:39:26.394Z,1.70
2023-05-23T18:42:29.675Z,1.90
2023-05-23T18:45:31.567Z,1.70
2023-05-23T18:48:35.659Z,1.65
2023-05-23T18:51:38.323Z,1.67
2023-05-23T18:54:40.191Z,1.77
2023-05-23T18:57:42.065Z,1.83
2023-05-23T19:00:44.740Z,1.70
2023-05-23T19:03:46.784Z,1.83
2023-05-23T19:06:49.597Z,1.63
2023-05-23T19:09:51.473Z,1.90
2023-05-23T19:12:53.288Z,1.67
2023-05-23T19:15:55.315Z,1.70
2023-05-23T19:18:57.831Z,1.70
2023-05-23T19:25:02.636Z,1.80
2023-05-23T19:28:04.467Z,1.77
2023-05-23T19:31:07.758Z,2.10
2023-05-23T19:34:09.634Z,1.95
2023-05-23T19:37:11.480Z,2.10
2023-05-23T19:40:13.576Z,2.05
2023-05-23T19:43:15.796Z,2.17
2023-05-23T19:46:17.715Z,1.95
2023-05-23T19:49:20.928Z,2.05
2023-05-23T19:52:22.759Z,2.30
2023-05-23T19:55:24.718Z,1.80
2023-05-23T19:58:26.588Z,2.45
2023-05-23T20:01:30.804Z,2.20
2023-05-23T20:04:32.681Z,1.70
2023-05-23T20:07:36.459Z,2.22
2023-05-23T20:10:38.389Z,1.70
2023-05-23T20:13:40.536Z,1.88
2023-05-23T20:16:42.491Z,1.83
2023-05-23T20:19:44.407Z,1.70
2023-05-23T20:22:46.235Z,2.00
2023-05-23T20:25:48.031Z,1.80
2023-05-23T20:28:50.397Z,1.80
2023-05-23T20:31:52.287Z,2.03
2023-05-23T20:34:54.130Z,2.00
2023-05-23T20:37:55.972Z,1.67
2023-05-23T20:41:05.529Z,1.77
2023-05-23T20:44:12.380Z,1.98
2023-05-23T20:47:15.503Z,1.77
2023-05-23T20:50:19.143Z,2.17
2023-05-23T20:53:21.121Z,1.98
2023-05-23T20:56:24.566Z,2.17
2023-05-23T20:59:26.491Z,1.83
2023-05-23T21:02:28.468Z,2.10
2023-05-23T21:05:30.419Z,2.03
2023-05-23T21:08:34.471Z,1.98
2023-05-23T21:11:36.751Z,1.98
2023-05-23T21:14:38.550Z,2.00
2023-05-23T21:17:40.476Z,1.87
2023-05-23T21:20:42.628Z,2.10
2023-05-23T21:23:44.793Z,2.13
2023-05-23T21:26:46.603Z,1.98
2023-05-23T21:29:48.567Z,1.83
2023-05-23T21:32:50.725Z,2.22
2023-05-23T21:35:52.712Z,2.10
2023-05-23T21:38:54.488Z,2.00
2023-05-23T21:41:56.324Z,2.00
2023-05-23T21:44:58.158Z,1.80
2023-05-23T21:48:00.011Z,1.90
2023-05-23T21:51:01.833Z,1.95
2023-05-23T21:54:03.832Z,1.43
2023-05-23T21:57:05.770Z,2.00
2023-05-23T22:00:12.406Z,2.00
2023-05-23T22:03:17.479Z,1.88
2023-05-23T22:06:19.451Z,1.70
2023-05-23T22:09:21.224Z,2.00
2023-05-23T22:12:23.158Z,2.10
2023-05-23T22:15:24.954Z,1.83
2023-05-23T22:18:30.593Z,2.03
2023-05-23T22:21:39.398Z,2.00
2023-05-23T22:24:41.176Z,2.20
2023-05-23T22:27:43.031Z,2.37
2023-05-23T22:30:44.901Z,2.20
2023-05-23T22:33:46.889Z,2.38
2023-05-23T22:36:48.660Z,2.53
2023-05-23T22:39:50.414Z,2.33
2023-05-23T22:42:52.162Z,2.03
2023-05-23T22:45:53.938Z,2.43
2023-05-23T22:48:55.753Z,2.43
2023-05-23T22:51:57.852Z,2.30
2023-05-23T22:54:59.771Z,2.42
2023-05-23T22:58:01.982Z,2.35
2023-05-23T23:01:03.875Z,2.45
2023-05-23T23:04:05.722Z,2.58
2023-05-23T23:07:08.804Z,2.47
2023-05-23T23:10:10.688Z,2.40
2023-05-23T23:13:14.114Z,2.00
2023-05-23T23:16:19.374Z,2.50
2023-05-23T23:19:21.893Z,1.98
2023-05-23T23:22:24.718Z,2.28
2023-05-23T23:25:26.937Z,2.40
2023-05-23T23:28:28.771Z,2.42
2023-05-23T23:31:30.810Z,2.17
2023-05-23T23:34:32.753Z,2.08
2023-05-23T23:37:34.758Z,2.55
2023-05-23T23:40:36.672Z,2.20
2023-05-23T23:43:38.473Z,2.33
2023-05-23T23:46:40.305Z,2.07
2023-05-23T23:49:42.333Z,2.40
2023-05-23T23:52:44.276Z,2.10
2023-05-23T23:55:46.352Z,2.27
2023-05-23T23:58:48.253Z,2.40
